createdAt,value
2023-01-05T00:01:54.323Z,409.27
2023-01-05T00:04:23.182Z,412.98
2023-01-05T00:06:51.374Z,412.05
2023-01-05T00:09:20.394Z,415.35
2023-01-05T00:12:05.971Z,417.80
2023-01-05T00:14:53.337Z,427.42
2023-01-05T00:17:41.038Z,416.88
2023-01-05T00:20:34.365Z,422.77
2023-01-05T00:23:02.782Z,430.75
2023-01-05T00:25:34.492Z,418.45
2023-01-05T00:28:02.644Z,431.58
2023-01-05T00:30:35.225Z,434.40
2023-01-05T00:33:03.444Z,437.77
2023-01-05T00:35:32.894Z,433.20
2023-01-05T00:38:02.511Z,440.38
2023-01-05T00:40:30.677Z,424.65
2023-01-05T00:42:59.187Z,434.73
2023-01-05T00:45:27.455Z,428.65
2023-01-05T00:47:57.076Z,429.13
2023-01-05T00:50:25.498Z,437.27
2023-01-05T00:52:53.661Z,436.20
2023-01-05T00:55:21.813Z,445.83
2023-01-05T00:57:50.134Z,366.35
2023-01-05T01:00:20.355Z,440.35
2023-01-05T01:02:48.965Z,448.20
2023-01-05T01:05:18.622Z,448.40
2023-01-05T01:07:48.660Z,460.52
2023-01-05T01:10:17.204Z,461.50
2023-01-05T01:12:45.369Z,454.58
2023-01-05T01:15:13.967Z,460.67
2023-01-05T01:17:43.522Z,465.20
2023-01-05T01:20:11.868Z,487.02
2023-01-05T01:22:41.360Z,485.42
2023-01-05T01:25:10.522Z,476.92
2023-01-05T01:27:38.809Z,478.63
2023-01-05T01:30:08.939Z,481.42
2023-01-05T01:32:37.118Z,480.63
2023-01-05T01:35:06.193Z,478.50
2023-01-05T01:37:34.343Z,473.67
2023-01-05T01:40:04.001Z,478.48
2023-01-05T01:42:32.686Z,485.17
2023-01-05T01:45:02.506Z,467.17
2023-01-05T01:47:41.063Z,468.17
2023-01-05T01:50:16.168Z,473.67
2023-01-05T01:52:47.065Z,480.55
2023-01-05T01:55:16.903Z,475.60
2023-01-05T01:57:48.726Z,473.00
2023-01-05T02:00:18.622Z,482.38
2023-01-05T02:02:49.261Z,473.15
2023-01-05T02:05:23.256Z,474.52
2023-01-05T02:07:51.376Z,479.27
2023-01-05T02:10:37.587Z,473.27
2023-01-05T02:13:29.603Z,479.55
2023-01-05T02:16:11.098Z,472.80
2023-01-05T02:19:03.943Z,451.17
2023-01-05T02:21:48.504Z,456.90
2023-01-05T02:24:57.362Z,504.35
2023-01-05T02:27:50.181Z,493.17
2023-01-05T02:31:01.003Z,508.90
2023-01-05T02:34:03.022Z,502.38
2023-01-05T02:36:37.613Z,484.83
2023-01-05T02:39:15.858Z,491.92
2023-01-05T02:41:51.631Z,485.30
2023-01-05T02:44:21.238Z,485.30
2023-01-05T02:47:02.226Z,474.83
2023-01-05T02:49:37.303Z,484.02
2023-01-05T02:52:09.705Z,473.20
2023-01-05T02:54:44.406Z,481.90
2023-01-05T02:57:18.281Z,498.88
2023-01-05T02:59:53.450Z,507.90
2023-01-05T03:02:29.285Z,514.85
2023-01-05T03:05:05.710Z,521.83
2023-01-05T03:07:40.397Z,486.25
2023-01-05T03:10:31.065Z,501.50
2023-01-05T03:13:25.143Z,528.40
2023-01-05T03:16:02.117Z,546.58
2023-01-05T03:18:33.983Z,517.65
2023-01-05T03:21:02.642Z,459.27
2023-01-05T03:23:49.327Z,491.30
2023-01-05T03:26:35.312Z,505.85
2023-01-05T03:29:22.197Z,504.17
2023-01-05T03:32:17.151Z,523.65
2023-01-05T03:35:09.527Z,526.40
2023-01-05T03:37:45.322Z,538.70
2023-01-05T03:40:21.513Z,561.65
2023-01-05T03:42:53.150Z,514.97
2023-01-05T03:45:23.444Z,482.15
2023-01-05T03:47:52.568Z,509.88
2023-01-05T03:50:25.932Z,492.40
2023-01-05T03:52:55.385Z,511.80
2023-01-05T03:55:25.066Z,432.20
2023-01-05T03:57:55.050Z,444.85
2023-01-05T04:00:25.096Z,423.38
2023-01-05T04:03:01.066Z,425.83
2023-01-05T04:05:29.589Z,419.40
2023-01-05T04:08:00.183Z,402.65
2023-01-05T04:10:29.791Z,406.20
2023-01-05T04:13:00.902Z,413.08
2023-01-05T04:15:29.543Z,408.77
2023-01-05T04:17:58.179Z,411.17
2023-01-05T04:20:27.775Z,409.33
2023-01-05T04:22:56.043Z,408.88
2023-01-05T04:25:26.342Z,423.75
2023-01-05T04:27:54.726Z,490.45
2023-01-05T04:30:24.309Z,489.95
2023-01-05T04:32:52.502Z,439.10
2023-01-05T04:35:21.629Z,449.63
2023-01-05T04:37:50.018Z,469.77
2023-01-05T04:40:19.097Z,534.70
2023-01-05T04:42:55.009Z,533.80
2023-01-05T04:45:24.020Z,474.92
2023-01-05T04:47:53.141Z,477.98
2023-01-05T04:50:23.490Z,424.02
2023-01-05T04:52:51.945Z,437.65
2023-01-05T04:55:22.281Z,387.98
2023-01-05T04:57:50.637Z,386.95
2023-01-05T05:00:22.446Z,399.92
2023-01-05T05:02:52.382Z,378.30
2023-01-05T05:05:20.694Z,412.98
2023-01-05T05:07:52.594Z,402.77
2023-01-05T05:10:20.859Z,442.70
2023-01-05T05:12:49.570Z,540.22
2023-01-05T05:15:18.352Z,535.85
2023-01-05T05:17:51.642Z,508.92
2023-01-05T05:20:19.801Z,501.27
2023-01-05T05:22:48.329Z,525.35
2023-01-05T05:25:19.355Z,528.93
2023-01-05T05:27:49.651Z,508.48
2023-01-05T05:30:17.926Z,465.77
2023-01-05T05:32:46.062Z,408.90
2023-01-05T05:35:15.701Z,434.35
2023-01-05T05:37:44.100Z,441.00
2023-01-05T05:40:13.682Z,428.90
2023-01-05T05:42:41.855Z,446.13
2023-01-05T05:45:11.463Z,515.45
2023-01-05T05:47:39.639Z,493.85
2023-01-05T05:50:09.001Z,517.97
2023-01-05T05:52:38.490Z,515.35
2023-01-05T05:55:08.619Z,490.35
2023-01-05T05:57:36.738Z,477.48
2023-01-05T06:00:06.384Z,490.90
2023-01-05T06:02:41.196Z,468.20
2023-01-05T06:05:10.490Z,480.73
2023-01-05T06:07:39.967Z,476.45
2023-01-05T06:10:09.928Z,473.85
2023-01-05T06:12:38.221Z,465.02
2023-01-05T06:15:08.168Z,464.45
2023-01-05T06:17:36.289Z,468.33
2023-01-05T06:20:05.345Z,471.58
2023-01-05T06:22:33.796Z,451.55
2023-01-05T06:25:03.319Z,462.58
2023-01-05T06:27:31.655Z,472.17
2023-01-05T06:29:59.819Z,472.98
2023-01-05T06:32:28.070Z,475.10
2023-01-05T06:34:56.249Z,479.75
2023-01-05T06:37:24.435Z,483.73
2023-01-05T06:39:52.588Z,491.48
2023-01-05T06:42:23.755Z,497.05
2023-01-05T06:44:52.330Z,475.75
2023-01-05T06:47:20.925Z,454.65
2023-01-05T06:49:49.111Z,462.52
2023-01-05T06:52:17.385Z,478.67
2023-01-05T06:54:46.005Z,477.08
2023-01-05T06:57:14.144Z,489.92
2023-01-05T06:59:43.749Z,496.23
2023-01-05T07:02:16.188Z,542.15
2023-01-05T07:04:44.783Z,568.65
2023-01-05T07:07:13.797Z,549.95
2023-01-05T07:09:42.788Z,547.45
2023-01-05T07:12:10.914Z,536.78
2023-01-05T07:14:39.133Z,530.97
2023-01-05T07:17:08.600Z,524.28
2023-01-05T07:19:36.845Z,493.73
2023-01-05T07:22:05.087Z,502.48
2023-01-05T07:24:33.296Z,512.20
2023-01-05T07:27:09.245Z,525.17
2023-01-05T07:29:37.917Z,545.15
2023-01-05T07:32:08.056Z,567.63
2023-01-05T07:34:36.204Z,537.55
2023-01-05T07:37:04.568Z,522.00
2023-01-05T07:39:33.140Z,536.45
2023-01-05T07:42:01.444Z,542.15
2023-01-05T07:44:29.657Z,567.40
2023-01-05T07:46:58.600Z,572.17
2023-01-05T07:49:29.440Z,613.53
2023-01-05T07:51:57.611Z,610.45
2023-01-05T07:54:27.454Z,568.20
2023-01-05T07:56:55.685Z,557.63
2023-01-05T07:59:23.829Z,554.13
2023-01-05T08:01:52.093Z,562.40
2023-01-05T08:04:20.328Z,549.60
2023-01-05T08:06:49.984Z,548.70
2023-01-05T08:09:36.015Z,554.78
2023-01-05T08:12:04.300Z,559.28
2023-01-05T08:14:32.738Z,544.03
2023-01-05T08:17:01.077Z,552.17
2023-01-05T08:19:29.399Z,535.40
2023-01-05T08:21:58.866Z,549.80
2023-01-05T08:24:27.410Z,541.88
2023-01-05T08:26:55.962Z,540.25
2023-01-05T08:29:24.441Z,572.50
2023-01-05T08:31:52.613Z,611.78
2023-01-05T08:34:20.795Z,524.75
2023-01-05T08:36:49.041Z,544.33
2023-01-05T08:39:18.488Z,540.88
2023-01-05T08:41:48.387Z,547.53
2023-01-05T08:44:16.885Z,557.10
2023-01-05T08:46:45.079Z,655.58
2023-01-05T08:49:13.531Z,596.63
2023-01-05T08:51:42.092Z,517.45
2023-01-05T08:54:10.404Z,563.78
2023-01-05T08:56:40.426Z,629.97
2023-01-05T08:59:12.515Z,623.25
2023-01-05T09:01:40.897Z,536.88
2023-01-05T09:04:09.537Z,528.70
2023-01-05T09:06:38.157Z,515.08
2023-01-05T09:09:06.729Z,530.95
2023-01-05T09:11:35.831Z,541.90
2023-01-05T09:14:05.689Z,535.30
2023-01-05T09:17:06.020Z,547.78
2023-01-05T09:19:24.346Z,517.72
2023-01-05T09:21:53.575Z,512.30
2023-01-05T09:24:21.782Z,381.90
2023-01-05T09:26:50.298Z,349.83
2023-01-05T09:29:19.853Z,344.30
2023-01-05T09:31:48.402Z,388.50
2023-01-05T09:34:19.031Z,355.20
2023-01-05T09:36:47.411Z,400.90
2023-01-05T09:39:15.687Z,419.70
2023-01-05T09:41:47.108Z,365.55
2023-01-05T09:44:29.605Z,340.50
2023-01-05T09:47:03.348Z,344.85
2023-01-05T09:49:35.111Z,333.05
2023-01-05T09:52:09.275Z,344.92
2023-01-05T09:54:39.406Z,353.80
2023-01-05T09:57:16.771Z,394.52
2023-01-05T09:59:49.842Z,422.85
2023-01-05T10:02:26.899Z,419.33
2023-01-05T10:04:56.524Z,427.90
2023-01-05T10:07:39.416Z,369.27
2023-01-05T10:10:21.488Z,354.92
2023-01-05T10:13:06.966Z,342.50
2023-01-05T10:15:46.195Z,349.58
2023-01-05T10:18:18.568Z,346.20
2023-01-05T10:21:07.466Z,337.05
2023-01-05T10:24:04.482Z,331.92
2023-01-05T10:27:14.318Z,330.65
2023-01-05T10:29:44.267Z,341.02
2023-01-05T10:32:26.180Z,345.95
2023-01-05T10:34:59.001Z,310.52
2023-01-05T10:37:49.290Z,319.75
2023-01-05T10:40:35.615Z,329.33
2023-01-05T10:43:24.820Z,345.77
2023-01-05T10:46:29.325Z,345.00
2023-01-05T10:48:43.354Z,346.83
2023-01-05T10:51:11.646Z,293.05
2023-01-05T10:53:43.426Z,297.33
2023-01-05T10:56:16.711Z,329.27
2023-01-05T10:58:46.970Z,345.92
2023-01-05T11:01:26.014Z,341.30
2023-01-05T11:04:26.920Z,348.83
2023-01-05T11:07:02.910Z,355.75
2023-01-05T11:09:31.818Z,355.80
2023-01-05T11:12:03.356Z,301.85
2023-01-05T11:14:38.075Z,323.70
2023-01-05T11:17:08.947Z,377.42
2023-01-05T11:19:46.040Z,425.60
2023-01-05T11:22:31.176Z,414.48
2023-01-05T11:25:30.760Z,399.90
2023-01-05T11:28:15.070Z,378.98
2023-01-05T11:30:59.850Z,373.10
2023-01-05T11:33:31.165Z,416.52
2023-01-05T11:36:04.577Z,395.88
2023-01-05T11:38:33.555Z,374.52
2023-01-05T11:41:02.401Z,363.42
2023-01-05T11:43:33.994Z,398.23
2023-01-05T11:46:05.787Z,390.67
2023-01-05T11:48:36.472Z,390.23
2023-01-05T11:51:06.763Z,390.63
2023-01-05T11:53:40.327Z,374.83
2023-01-05T11:56:21.452Z,376.77
2023-01-05T11:58:51.941Z,406.10
2023-01-05T12:02:01.431Z,396.88
2023-01-05T12:05:00.431Z,381.00
2023-01-05T12:07:35.470Z,361.33
2023-01-05T12:10:26.214Z,362.13
2023-01-05T12:13:05.186Z,375.08
2023-01-05T12:16:02.211Z,379.95
2023-01-05T12:19:04.809Z,372.75
2023-01-05T12:21:40.391Z,371.50
2023-01-05T12:24:36.277Z,378.33
2023-01-05T12:27:20.887Z,376.10
2023-01-05T12:34:02.086Z,346.80
2023-01-05T12:36:36.286Z,356.75
2023-01-05T12:39:31.944Z,354.83
2023-01-05T12:42:24.044Z,354.98
2023-01-05T12:45:18.366Z,343.55
2023-01-05T12:48:01.028Z,346.63
2023-01-05T12:50:36.282Z,347.52
2023-01-05T12:53:18.848Z,354.25
2023-01-05T12:55:52.892Z,352.50
2023-01-05T12:58:28.365Z,348.65
2023-01-05T13:00:57.826Z,360.73
2023-01-05T13:03:34.793Z,351.40
2023-01-05T13:06:11.265Z,420.52
2023-01-05T13:08:45.604Z,388.55
2023-01-05T13:11:23.287Z,392.13
2023-01-05T13:13:57.203Z,392.98
2023-01-05T13:16:30.150Z,379.10
2023-01-05T13:19:06.285Z,397.85
2023-01-05T13:21:37.186Z,398.08
2023-01-05T13:24:12.103Z,351.80
2023-01-05T13:26:41.812Z,365.13
2023-01-05T13:29:21.653Z,347.95
2023-01-05T13:32:16.738Z,344.92
2023-01-05T13:35:15.278Z,337.25
2023-01-05T13:38:21.086Z,337.58
2023-01-05T13:41:17.776Z,339.20
2023-01-05T13:44:43.516Z,348.55
2023-01-05T13:47:32.178Z,360.42
2023-01-05T13:50:38.609Z,351.63
2023-01-05T13:53:15.117Z,360.60
2023-01-05T13:55:51.258Z,347.55
2023-01-05T14:01:15.156Z,350.33
2023-01-05T14:03:52.054Z,353.63
2023-01-05T14:06:26.197Z,364.52
2023-01-05T14:08:59.543Z,358.02
2023-01-05T14:11:29.884Z,363.55
2023-01-05T14:14:00.893Z,350.08
2023-01-05T14:16:53.661Z,359.00
2023-01-05T14:19:46.215Z,354.65
2023-01-05T14:22:37.792Z,355.20
2023-01-05T14:25:49.416Z,372.35
2023-01-05T14:28:41.924Z,374.98
2023-01-05T14:34:32.252Z,351.73
2023-01-05T14:37:07.744Z,339.80
2023-01-05T14:39:43.868Z,344.00
2023-01-05T14:42:28.529Z,343.40
2023-01-05T14:45:02.578Z,346.88
2023-01-05T14:47:40.729Z,349.98
2023-01-05T14:50:35.370Z,350.48
2023-01-05T14:53:13.162Z,356.83
2023-01-05T14:56:03.377Z,332.55
2023-01-05T14:59:15.612Z,329.73
2023-01-05T15:01:52.775Z,331.83
2023-01-05T15:04:26.744Z,361.95
2023-01-05T15:07:15.364Z,373.45
2023-01-05T15:10:10.047Z,397.80
2023-01-05T15:13:01.914Z,403.25
2023-01-05T15:15:44.857Z,417.10
2023-01-05T15:18:38.677Z,424.80
2023-01-05T15:21:59.802Z,427.55
2023-01-05T15:25:35.596Z,388.13
2023-01-05T15:28:45.723Z,394.13
2023-01-05T15:31:38.646Z,390.00
2023-01-05T15:34:20.717Z,385.50
2023-01-05T15:36:55.862Z,383.65
2023-01-05T15:39:31.431Z,402.13
2023-01-05T15:42:06.695Z,385.20
2023-01-05T15:44:40.339Z,389.65
2023-01-05T15:47:11.803Z,397.15
2023-01-05T15:49:41.129Z,424.63
2023-01-05T15:52:22.335Z,418.20
2023-01-05T15:55:03.480Z,406.08
2023-01-05T15:57:33.039Z,415.10
2023-01-05T16:00:01.187Z,430.90
2023-01-05T16:02:31.212Z,425.70
2023-01-05T16:05:15.604Z,423.80
2023-01-05T16:07:54.103Z,426.17
2023-01-05T16:10:28.735Z,413.33
2023-01-05T16:13:03.911Z,425.25
2023-01-05T16:15:39.517Z,434.75
2023-01-05T16:18:16.607Z,408.15
2023-01-05T16:20:46.890Z,392.65
2023-01-05T16:23:22.647Z,434.70
2023-01-05T16:25:54.194Z,454.27
2023-01-05T16:28:25.539Z,446.08
2023-01-05T16:30:55.314Z,440.70
2023-01-05T16:33:35.134Z,445.13
2023-01-05T16:36:19.862Z,464.83
2023-01-05T16:38:48.873Z,463.27
2023-01-05T16:41:23.796Z,455.42
2023-01-05T16:43:56.964Z,407.27
2023-01-05T16:46:32.599Z,419.85
2023-01-05T16:49:07.068Z,473.33
2023-01-05T16:51:43.428Z,458.58
2023-01-05T16:54:22.518Z,456.58
2023-01-05T16:56:59.127Z,425.33
2023-01-05T16:59:47.686Z,439.27
2023-01-05T17:02:44.737Z,417.38
2023-01-05T17:05:18.051Z,444.10
2023-01-05T17:07:49.921Z,434.10
2023-01-05T17:10:23.124Z,448.20
2023-01-05T17:13:01.122Z,460.90
2023-01-05T17:15:33.391Z,391.42
2023-01-05T17:18:02.150Z,447.77
2023-01-05T17:20:41.059Z,451.23
2023-01-05T17:23:14.225Z,453.42
2023-01-05T17:25:43.800Z,459.45
2023-01-05T17:30:47.108Z,479.83
2023-01-05T17:33:15.497Z,455.38
2023-01-05T17:35:44.029Z,460.73
2023-01-05T17:38:13.497Z,457.02
2023-01-05T17:40:42.584Z,458.98
2023-01-05T17:43:10.853Z,475.10
2023-01-05T17:45:42.573Z,461.77
2023-01-05T17:50:46.090Z,465.67
2023-01-05T17:53:14.651Z,475.30
2023-01-05T17:55:44.025Z,468.95
2023-01-05T17:58:15.237Z,492.83
2023-01-05T18:03:21.778Z,522.42
2023-01-05T18:05:52.179Z,502.50
2023-01-05T18:08:21.548Z,491.83
2023-01-05T18:10:49.729Z,482.85
2023-01-05T18:13:19.922Z,477.25
2023-01-05T18:15:52.993Z,477.52
2023-01-05T18:18:23.154Z,465.92
2023-01-05T18:20:52.075Z,424.98
2023-01-05T18:23:21.100Z,469.20
2023-01-05T18:25:49.346Z,465.63
2023-01-05T18:28:18.052Z,457.77
2023-01-05T18:30:46.703Z,477.42
2023-01-05T18:33:14.943Z,457.75
2023-01-05T18:35:44.848Z,458.50
2023-01-05T18:38:13.049Z,466.80
2023-01-05T18:40:41.161Z,459.45
2023-01-05T18:43:09.482Z,463.50
2023-01-05T18:45:39.679Z,461.98
2023-01-05T18:48:08.817Z,464.08
2023-01-05T18:50:43.031Z,467.77
2023-01-05T18:53:13.194Z,462.92
2023-01-05T18:55:42.612Z,465.00
2023-01-05T18:58:12.059Z,460.27
2023-01-05T19:00:41.349Z,467.17
2023-01-05T19:03:10.206Z,473.45
2023-01-05T19:05:40.911Z,465.95
2023-01-05T19:08:09.614Z,471.67
2023-01-05T19:10:39.433Z,472.23
2023-01-05T19:13:08.217Z,469.95
2023-01-05T19:15:37.492Z,466.50
2023-01-05T19:18:06.764Z,466.60
2023-01-05T19:20:34.913Z,467.77
2023-01-05T19:23:03.096Z,460.00
2023-01-05T19:25:31.994Z,449.05
2023-01-05T19:28:02.568Z,451.25
2023-01-05T19:30:31.734Z,444.90
2023-01-05T19:33:02.221Z,439.80
2023-01-05T19:35:31.168Z,455.35
2023-01-05T19:38:00.453Z,448.27
2023-01-05T19:40:28.975Z,447.15
2023-01-05T19:42:57.300Z,455.02
2023-01-05T19:45:27.036Z,453.58
2023-01-05T19:47:55.484Z,454.13
2023-01-05T19:50:23.698Z,453.35
2023-01-05T19:52:51.834Z,457.02
2023-01-05T19:55:20.286Z,448.85
2023-01-05T19:57:48.796Z,459.63
2023-01-05T20:00:18.370Z,449.92
2023-01-05T20:02:48.033Z,450.50
2023-01-05T20:05:17.393Z,449.80
2023-01-05T20:07:45.897Z,452.30
2023-01-05T20:10:14.499Z,441.60
2023-01-05T20:12:42.775Z,448.35
2023-01-05T20:15:13.158Z,437.83
2023-01-05T20:17:42.218Z,444.23
2023-01-05T20:20:13.142Z,441.85
2023-01-05T20:22:41.551Z,448.58
2023-01-05T20:25:10.961Z,435.60
2023-01-05T20:27:39.656Z,442.55
2023-01-05T20:30:09.853Z,450.15
2023-01-05T20:32:38.373Z,444.33
2023-01-05T20:35:07.205Z,444.65
2023-01-05T20:37:36.691Z,446.27
2023-01-05T20:40:06.332Z,456.88
2023-01-05T20:42:34.609Z,445.10
2023-01-05T20:45:03.866Z,448.33
2023-01-05T20:47:43.261Z,452.35
2023-01-05T20:50:15.304Z,452.52
2023-01-05T20:52:45.029Z,460.90
2023-01-05T20:55:13.181Z,463.10
2023-01-05T20:57:41.337Z,452.17
2023-01-05T21:00:12.520Z,456.80
2023-01-05T21:02:41.196Z,460.15
2023-01-05T21:05:11.780Z,462.42
2023-01-05T21:07:40.054Z,462.15
2023-01-05T21:10:10.122Z,479.13
2023-01-05T21:12:38.332Z,475.80
2023-01-05T21:15:08.277Z,477.35
2023-01-05T21:17:36.531Z,471.92
2023-01-05T21:20:05.169Z,472.55
2023-01-05T21:22:33.323Z,465.08
2023-01-05T21:25:01.486Z,484.50
2023-01-05T21:27:30.995Z,480.98
2023-01-05T21:29:59.316Z,479.73
2023-01-05T21:32:27.638Z,482.35
2023-01-05T21:34:55.776Z,477.10
2023-01-05T21:37:24.212Z,482.65
2023-01-05T21:39:52.322Z,474.63
2023-01-05T21:42:38.401Z,485.17
2023-01-05T21:45:10.625Z,478.08
2023-01-05T21:50:09.478Z,476.77
2023-01-05T21:52:55.321Z,489.02
2023-01-05T21:55:41.405Z,477.92
2023-01-05T21:58:09.774Z,478.30
2023-01-05T22:00:39.201Z,481.95
2023-01-05T22:03:07.380Z,495.23
2023-01-05T22:05:35.891Z,488.23
2023-01-05T22:08:04.181Z,489.30
2023-01-05T22:10:32.265Z,487.20
2023-01-05T22:13:00.438Z,485.40
2023-01-05T22:15:28.600Z,490.95
2023-01-05T22:17:58.110Z,492.48
2023-01-05T22:20:26.327Z,490.45
2023-01-05T22:22:54.909Z,493.70
2023-01-05T22:25:23.035Z,498.90
2023-01-05T22:27:51.146Z,509.90
2023-01-05T22:30:19.816Z,531.45
2023-01-05T22:32:48.949Z,502.80
2023-01-05T22:35:18.752Z,505.00
2023-01-05T22:37:46.857Z,546.47
2023-01-05T22:40:15.355Z,513.60
2023-01-05T22:42:43.517Z,523.75
2023-01-05T22:45:12.006Z,525.05
2023-01-05T22:47:40.352Z,523.20
2023-01-05T22:50:09.153Z,459.42
2023-01-05T22:52:38.911Z,452.00
2023-01-05T22:55:07.793Z,408.58
2023-01-05T22:57:35.920Z,466.42
2023-01-05T23:00:04.984Z,465.38
2023-01-05T23:02:33.109Z,467.63
2023-01-05T23:05:03.130Z,488.73
2023-01-05T23:07:32.028Z,476.83
2023-01-05T23:10:01.592Z,515.38
2023-01-05T23:12:29.705Z,514.45
2023-01-05T23:14:57.860Z,511.88
2023-01-05T23:17:26.011Z,472.80
2023-01-05T23:19:54.249Z,510.25
2023-01-05T23:22:22.385Z,498.95
2023-01-05T23:24:50.496Z,527.33
2023-01-05T23:27:19.971Z,507.33
2023-01-05T23:29:48.082Z,467.30
2023-01-05T23:32:16.202Z,457.70
2023-01-05T23:34:44.318Z,457.52
2023-01-05T23:37:12.516Z,477.63
2023-01-05T23:39:40.720Z,487.63
2023-01-05T23:42:29.244Z,501.45
2023-01-05T23:45:00.619Z,476.33
2023-01-05T23:47:28.785Z,479.67
2023-01-05T23:49:56.931Z,496.00
2023-01-05T23:52:25.100Z,518.20
2023-01-05T23:54:53.218Z,513.88
2023-01-05T23:57:21.411Z,524.05
2023-01-05T23:59:49.527Z,530.17
